sensor_id;sensor_type;location;lat;lon;timestamp;P1;durP1;ratioP1;P2;durP2;ratioP2
23800;SDS011;12081;48.614;10.226;2024-01-27T00:01:36;5.93;;;1.77;;
23800;SDS011;12081;48.614;10.226;2024-01-27T00:04:20;6.80;;;1.70;;
23800;SDS011;12081;48.614;10.226;2024-01-27T00:07:05;6.33;;;1.67;;
23800;SDS011;12081;48.614;10.226;2024-01-27T00:09:48;6.33;;;1.40;;
23800;SDS011;12081;48.614;10.226;2024-01-27T00:12:33;6.07;;;1.40;;
23800;SDS011;12081;48.614;10.226;2024-01-27T00:15:17;5.07;;;1.80;;
23800;SDS011;12081;48.614;10.226;2024-01-27T00:18:01;5.17;;;1.80;;
23800;SDS011;12081;48.614;10.226;2024-01-27T00:20:45;4.03;;;1.70;;
23800;SDS011;12081;48.614;10.226;2024-01-27T00:23:29;6.03;;;1.83;;
23800;SDS011;12081;48.614;10.226;2024-01-27T00:26:13;5.73;;;1.47;;
23800;SDS011;12081;48.614;10.226;2024-01-27T00:28:57;5.63;;;2.30;;
23800;SDS011;12081;48.614;10.226;2024-01-27T00:31:41;3.67;;;1.97;;
23800;SDS011;12081;48.614;10.226;2024-01-27T00:34:25;4.70;;;1.67;;
23800;SDS011;12081;48.614;10.226;2024-01-27T00:37:09;3.70;;;2.20;;
23800;SDS011;12081;48.614;10.226;2024-01-27T00:39:53;7.83;;;2.10;;
23800;SDS011;12081;48.614;10.226;2024-01-27T00:42:37;4.87;;;2.10;;
23800;SDS011;12081;48.614;10.226;2024-01-27T00:45:22;8.07;;;2.83;;
23800;SDS011;12081;48.614;10.226;2024-01-27T00:48:06;4.13;;;2.00;;
23800;SDS011;12081;48.614;10.226;2024-01-27T00:50:50;8.63;;;2.23;;
23800;SDS011;12081;48.614;10.226;2024-01-27T00:53:34;7.53;;;2.40;;
23800;SDS011;12081;48.614;10.226;2024-01-27T00:56:19;4.43;;;2.27;;
23800;SDS011;12081;48.614;10.226;2024-01-27T00:59:02;7.67;;;2.33;;
23800;SDS011;12081;48.614;10.226;2024-01-27T01:01:47;4.17;;;2.40;;
23800;SDS011;12081;48.614;10.226;2024-01-27T01:04:31;5.47;;;3.03;;
23800;SDS011;12081;48.614;10.226;2024-01-27T01:07:15;6.33;;;2.40;;
23800;SDS011;12081;48.614;10.226;2024-01-27T01:09:59;7.73;;;2.47;;
23800;SDS011;12081;48.614;10.226;2024-01-27T01:12:43;8.63;;;2.60;;
23800;SDS011;12081;48.614;10.226;2024-01-27T01:15:27;7.43;;;2.77;;
23800;SDS011;12081;48.614;10.226;2024-01-27T01:18:12;8.93;;;2.50;;
23800;SDS011;12081;48.614;10.226;2024-01-27T01:20:56;6.80;;;2.20;;
23800;SDS011;12081;48.614;10.226;2024-01-27T01:23:40;6.67;;;2.13;;
23800;SDS011;12081;48.614;10.226;2024-01-27T01:26:24;5.47;;;2.33;;
23800;SDS011;12081;48.614;10.226;2024-01-27T01:29:08;5.53;;;2.20;;
23800;SDS011;12081;48.614;10.226;2024-01-27T01:31:53;4.43;;;2.17;;
23800;SDS011;12081;48.614;10.226;2024-01-27T01:34:37;8.50;;;2.70;;
23800;SDS011;12081;48.614;10.226;2024-01-27T01:37:21;7.87;;;2.00;;
23800;SDS011;12081;48.614;10.226;2024-01-27T01:40:05;5.37;;;1.90;;
23800;SDS011;12081;48.614;10.226;2024-01-27T01:42:51;6.60;;;2.03;;
23800;SDS011;12081;48.614;10.226;2024-01-27T01:45:35;5.93;;;1.80;;
23800;SDS011;12081;48.614;10.226;2024-01-27T01:48:20;6.10;;;1.93;;
23800;SDS011;12081;48.614;10.226;2024-01-27T01:51:04;7.13;;;2.17;;
23800;SDS011;12081;48.614;10.226;2024-01-27T01:53:49;10.03;;;2.30;;
23800;SDS011;12081;48.614;10.226;2024-01-27T01:56:34;6.10;;;1.93;;
23800;SDS011;12081;48.614;10.226;2024-01-27T01:59:20;3.70;;;1.97;;
23800;SDS011;12081;48.614;10.226;2024-01-27T02:02:04;4.63;;;1.80;;
23800;SDS011;12081;48.614;10.226;2024-01-27T02:04:48;4.07;;;1.90;;
23800;SDS011;12081;48.614;10.226;2024-01-27T02:07:32;12.83;;;2.53;;
23800;SDS011;12081;48.614;10.226;2024-01-27T02:10:16;7.63;;;2.23;;
23800;SDS011;12081;48.614;10.226;2024-01-27T02:13:02;8.23;;;2.40;;
23800;SDS011;12081;48.614;10.226;2024-01-27T02:15:49;9.50;;;3.10;;
23800;SDS011;12081;48.614;10.226;2024-01-27T02:18:34;5.60;;;2.20;;
23800;SDS011;12081;48.614;10.226;2024-01-27T02:21:18;5.67;;;2.37;;
23800;SDS011;12081;48.614;10.226;2024-01-27T02:24:02;7.33;;;2.63;;
23800;SDS011;12081;48.614;10.226;2024-01-27T02:26:49;6.37;;;1.93;;
23800;SDS011;12081;48.614;10.226;2024-01-27T02:29:34;8.87;;;2.37;;
23800;SDS011;12081;48.614;10.226;2024-01-27T02:32:19;6.13;;;2.60;;
23800;SDS011;12081;48.614;10.226;2024-01-27T02:35:03;6.40;;;2.17;;
23800;SDS011;12081;48.614;10.226;2024-01-27T02:37:48;4.87;;;2.10;;
23800;SDS011;12081;48.614;10.226;2024-01-27T02:40:45;10.83;;;2.50;;
23800;SDS011;12081;48.614;10.226;2024-01-27T02:46:03;7.00;;;2.30;;
23800;SDS011;12081;48.614;10.226;2024-01-27T02:48:50;7.03;;;2.17;;
23800;SDS011;12081;48.614;10.226;2024-01-27T02:51:34;4.60;;;2.43;;
23800;SDS011;12081;48.614;10.226;2024-01-27T02:54:18;6.77;;;2.50;;
23800;SDS011;12081;48.614;10.226;2024-01-27T02:57:02;6.27;;;2.50;;
23800;SDS011;12081;48.614;10.226;2024-01-27T02:59:47;6.47;;;2.70;;
23800;SDS011;12081;48.614;10.226;2024-01-27T03:02:31;8.67;;;2.77;;
23800;SDS011;12081;48.614;10.226;2024-01-27T03:05:15;8.57;;;3.07;;
23800;SDS011;12081;48.614;10.226;2024-01-27T03:07:59;6.03;;;2.33;;
23800;SDS011;12081;48.614;10.226;2024-01-27T03:13:32;4.70;;;2.50;;
23800;SDS011;12081;48.614;10.226;2024-01-27T03:16:16;16.23;;;3.00;;
23800;SDS011;12081;48.614;10.226;2024-01-27T03:19:02;8.57;;;3.07;;
23800;SDS011;12081;48.614;10.226;2024-01-27T03:21:46;10.33;;;2.63;;
23800;SDS011;12081;48.614;10.226;2024-01-27T03:24:30;5.90;;;2.80;;
23800;SDS011;12081;48.614;10.226;2024-01-27T03:27:14;3.57;;;2.43;;
23800;SDS011;12081;48.614;10.226;2024-01-27T03:30:01;6.27;;;3.00;;
23800;SDS011;12081;48.614;10.226;2024-01-27T03:32:47;5.03;;;2.90;;
23800;SDS011;12081;48.614;10.226;2024-01-27T03:35:32;5.60;;;3.07;;
23800;SDS011;12081;48.614;10.226;2024-01-27T03:38:16;9.50;;;3.50;;
23800;SDS011;12081;48.614;10.226;2024-01-27T03:41:00;11.53;;;3.33;;
23800;SDS011;12081;48.614;10.226;2024-01-27T03:43:44;11.97;;;3.67;;
23800;SDS011;12081;48.614;10.226;2024-01-27T03:46:28;9.30;;;3.73;;
23800;SDS011;12081;48.614;10.226;2024-01-27T03:49:12;9.43;;;3.87;;
23800;SDS011;12081;48.614;10.226;2024-01-27T03:51:56;8.87;;;3.87;;
23800;SDS011;12081;48.614;10.226;2024-01-27T03:54:40;6.63;;;3.07;;
23800;SDS011;12081;48.614;10.226;2024-01-27T03:57:24;7.97;;;3.30;;
23800;SDS011;12081;48.614;10.226;2024-01-27T04:00:08;8.83;;;3.63;;
23800;SDS011;12081;48.614;10.226;2024-01-27T04:02:55;11.90;;;4.07;;
23800;SDS011;12081;48.614;10.226;2024-01-27T04:05:39;11.60;;;4.00;;
23800;SDS011;12081;48.614;10.226;2024-01-27T04:08:23;15.07;;;5.00;;
23800;SDS011;12081;48.614;10.226;2024-01-27T04:11:07;9.90;;;3.90;;
23800;SDS011;12081;48.614;10.226;2024-01-27T04:13:51;6.27;;;3.50;;
23800;SDS011;12081;48.614;10.226;2024-01-27T04:16:35;11.30;;;3.70;;
23800;SDS011;12081;48.614;10.226;2024-01-27T04:19:19;7.87;;;3.47;;
23800;SDS011;12081;48.614;10.226;2024-01-27T04:22:03;11.97;;;3.40;;
23800;SDS011;12081;48.614;10.226;2024-01-27T04:24:47;10.67;;;3.53;;
23800;SDS011;12081;48.614;10.226;2024-01-27T04:27:32;7.90;;;3.60;;
23800;SDS011;12081;48.614;10.226;2024-01-27T04:30:22;10.63;;;3.33;;
23800;SDS011;12081;48.614;10.226;2024-01-27T04:33:05;8.07;;;4.53;;
23800;SDS011;12081;48.614;10.226;2024-01-27T04:35:51;9.77;;;4.40;;
23800;SDS011;12081;48.614;10.226;2024-01-27T04:38:35;5.97;;;4.23;;
23800;SDS011;12081;48.614;10.226;2024-01-27T04:41:20;11.77;;;4.07;;
23800;SDS011;12081;48.614;10.226;2024-01-27T04:44:04;10.17;;;4.47;;
23800;SDS011;12081;48.614;10.226;2024-01-27T04:46:48;8.77;;;4.00;;
23800;SDS011;12081;48.614;10.226;2024-01-27T04:49:32;16.13;;;4.07;;
23800;SDS011;12081;48.614;10.226;2024-01-27T04:52:16;13.17;;;4.20;;
23800;SDS011;12081;48.614;10.226;2024-01-27T04:55:01;8.53;;;3.70;;
23800;SDS011;12081;48.614;10.226;2024-01-27T04:57:46;11.80;;;3.70;;
23800;SDS011;12081;48.614;10.226;2024-01-27T05:00:30;11.13;;;5.23;;
23800;SDS011;12081;48.614;10.226;2024-01-27T05:03:14;10.63;;;3.60;;
23800;SDS011;12081;48.614;10.226;2024-01-27T05:05:59;10.43;;;3.80;;
23800;SDS011;12081;48.614;10.226;2024-01-27T05:08:43;10.17;;;3.87;;
23800;SDS011;12081;48.614;10.226;2024-01-27T05:11:29;11.47;;;4.23;;
23800;SDS011;12081;48.614;10.226;2024-01-27T05:14:17;17.33;;;4.40;;
23800;SDS011;12081;48.614;10.226;2024-01-27T05:17:01;17.90;;;4.73;;
23800;SDS011;12081;48.614;10.226;2024-01-27T05:19:46;9.00;;;3.83;;
23800;SDS011;12081;48.614;10.226;2024-01-27T05:22:30;10.17;;;3.93;;
23800;SDS011;12081;48.614;10.226;2024-01-27T05:25:14;11.40;;;4.37;;
23800;SDS011;12081;48.614;10.226;2024-01-27T05:28:00;8.10;;;4.00;;
23800;SDS011;12081;48.614;10.226;2024-01-27T05:30:44;11.63;;;4.13;;
23800;SDS011;12081;48.614;10.226;2024-01-27T05:33:28;12.67;;;5.37;;
23800;SDS011;12081;48.614;10.226;2024-01-27T05:36:12;8.63;;;4.00;;
23800;SDS011;12081;48.614;10.226;2024-01-27T05:38:56;10.43;;;3.93;;
23800;SDS011;12081;48.614;10.226;2024-01-27T05:41:40;7.90;;;3.90;;
23800;SDS011;12081;48.614;10.226;2024-01-27T05:44:24;11.97;;;4.73;;
23800;SDS011;12081;48.614;10.226;2024-01-27T05:47:08;10.73;;;4.57;;
23800;SDS011;12081;48.614;10.226;2024-01-27T05:49:54;9.13;;;4.17;;
23800;SDS011;12081;48.614;10.226;2024-01-27T05:52:38;9.17;;;4.60;;
23800;SDS011;12081;48.614;10.226;2024-01-27T05:55:23;12.03;;;4.40;;
23800;SDS011;12081;48.614;10.226;2024-01-27T05:58:08;8.67;;;3.90;;
23800;SDS011;12081;48.614;10.226;2024-01-27T06:00:52;12.00;;;5.07;;
23800;SDS011;12081;48.614;10.226;2024-01-27T06:03:38;9.97;;;4.50;;
23800;SDS011;12081;48.614;10.226;2024-01-27T06:06:26;10.57;;;4.50;;
23800;SDS011;12081;48.614;10.226;2024-01-27T06:09:10;14.60;;;5.00;;
23800;SDS011;12081;48.614;10.226;2024-01-27T06:11:57;10.33;;;4.23;;
23800;SDS011;12081;48.614;10.226;2024-01-27T06:14:43;14.30;;;5.40;;
23800;SDS011;12081;48.614;10.226;2024-01-27T06:17:27;13.93;;;5.37;;
23800;SDS011;12081;48.614;10.226;2024-01-27T06:20:12;15.97;;;4.57;;
23800;SDS011;12081;48.614;10.226;2024-01-27T06:22:56;11.23;;;4.07;;
23800;SDS011;12081;48.614;10.226;2024-01-27T06:25:41;10.13;;;4.67;;
23800;SDS011;12081;48.614;10.226;2024-01-27T06:28:25;14.63;;;4.00;;
23800;SDS011;12081;48.614;10.226;2024-01-27T06:34:52;9.20;;;4.43;;
23800;SDS011;12081;48.614;10.226;2024-01-27T06:37:36;12.93;;;4.17;;
23800;SDS011;12081;48.614;10.226;2024-01-27T06:40:21;10.90;;;4.37;;
23800;SDS011;12081;48.614;10.226;2024-01-27T06:43:05;15.10;;;4.10;;
23800;SDS011;12081;48.614;10.226;2024-01-27T06:45:50;8.87;;;4.40;;
23800;SDS011;12081;48.614;10.226;2024-01-27T06:48:35;12.33;;;5.07;;
23800;SDS011;12081;48.614;10.226;2024-01-27T06:51:19;11.10;;;4.90;;
23800;SDS011;12081;48.614;10.226;2024-01-27T06:54:04;9.73;;;4.33;;
23800;SDS011;12081;48.614;10.226;2024-01-27T06:56:48;13.10;;;4.60;;
23800;SDS011;12081;48.614;10.226;2024-01-27T06:59:33;16.87;;;5.43;;
23800;SDS011;12081;48.614;10.226;2024-01-27T07:02:27;19.27;;;7.57;;
23800;SDS011;12081;48.614;10.226;2024-01-27T07:05:15;14.07;;;5.43;;
23800;SDS011;12081;48.614;10.226;2024-01-27T07:07:59;13.87;;;4.77;;
23800;SDS011;12081;48.614;10.226;2024-01-27T07:10:44;9.83;;;5.37;;
23800;SDS011;12081;48.614;10.226;2024-01-27T07:13:29;12.03;;;4.70;;
23800;SDS011;12081;48.614;10.226;2024-01-27T07:16:13;12.57;;;4.87;;
23800;SDS011;12081;48.614;10.226;2024-01-27T07:18:58;9.87;;;4.67;;
23800;SDS011;12081;48.614;10.226;2024-01-27T07:21:42;11.07;;;4.90;;
23800;SDS011;12081;48.614;10.226;2024-01-27T07:24:27;13.80;;;5.00;;
23800;SDS011;12081;48.614;10.226;2024-01-27T07:27:12;10.53;;;5.07;;
23800;SDS011;12081;48.614;10.226;2024-01-27T07:29:57;10.60;;;5.07;;
23800;SDS011;12081;48.614;10.226;2024-01-27T07:32:41;11.23;;;5.60;;
23800;SDS011;12081;48.614;10.226;2024-01-27T07:35:27;13.07;;;5.67;;
23800;SDS011;12081;48.614;10.226;2024-01-27T07:38:12;12.03;;;5.03;;
23800;SDS011;12081;48.614;10.226;2024-01-27T07:40:56;9.47;;;5.20;;
23800;SDS011;12081;48.614;10.226;2024-01-27T07:43:41;11.67;;;4.77;;
23800;SDS011;12081;48.614;10.226;2024-01-27T07:46:26;7.07;;;3.03;;
23800;SDS011;12081;48.614;10.226;2024-01-27T07:49:10;7.63;;;3.07;;
23800;SDS011;12081;48.614;10.226;2024-01-27T07:51:56;6.90;;;2.83;;
23800;SDS011;12081;48.614;10.226;2024-01-27T07:54:40;5.57;;;2.57;;
23800;SDS011;12081;48.614;10.226;2024-01-27T07:57:25;4.97;;;2.60;;
23800;SDS011;12081;48.614;10.226;2024-01-27T08:00:10;5.67;;;2.50;;
23800;SDS011;12081;48.614;10.226;2024-01-27T08:02:54;7.70;;;3.73;;
23800;SDS011;12081;48.614;10.226;2024-01-27T08:05:39;6.60;;;2.77;;
23800;SDS011;12081;48.614;10.226;2024-01-27T08:08:23;7.70;;;2.60;;
23800;SDS011;12081;48.614;10.226;2024-01-27T08:11:08;6.23;;;2.60;;
23800;SDS011;12081;48.614;10.226;2024-01-27T08:13:53;6.00;;;2.50;;
23800;SDS011;12081;48.614;10.226;2024-01-27T08:16:37;4.73;;;2.20;;
23800;SDS011;12081;48.614;10.226;2024-01-27T08:19:23;4.77;;;1.83;;
23800;SDS011;12081;48.614;10.226;2024-01-27T08:22:07;6.30;;;2.30;;
23800;SDS011;12081;48.614;10.226;2024-01-27T08:24:52;8.10;;;3.10;;
23800;SDS011;12081;48.614;10.226;2024-01-27T08:27:36;16.63;;;9.10;;
23800;SDS011;12081;48.614;10.226;2024-01-27T08:30:21;52.03;;;27.47;;
23800;SDS011;12081;48.614;10.226;2024-01-27T08:33:06;31.97;;;19.33;;
23800;SDS011;12081;48.614;10.226;2024-01-27T08:38:45;12.53;;;7.30;;
23800;SDS011;12081;48.614;10.226;2024-01-27T08:41:30;9.20;;;5.03;;
23800;SDS011;12081;48.614;10.226;2024-01-27T08:44:14;5.57;;;3.33;;
23800;SDS011;12081;48.614;10.226;2024-01-27T08:46:59;7.57;;;3.53;;
23800;SDS011;12081;48.614;10.226;2024-01-27T08:49:44;8.30;;;3.77;;
23800;SDS011;12081;48.614;10.226;2024-01-27T08:52:28;8.27;;;4.70;;
23800;SDS011;12081;48.614;10.226;2024-01-27T08:55:12;28.70;;;17.93;;
23800;SDS011;12081;48.614;10.226;2024-01-27T08:57:57;21.33;;;13.63;;
23800;SDS011;12081;48.614;10.226;2024-01-27T09:00:41;8.57;;;6.10;;
23800;SDS011;12081;48.614;10.226;2024-01-27T09:03:25;22.25;;;14.45;;
23800;SDS011;12081;48.614;10.226;2024-01-27T09:06:09;8.27;;;4.47;;
23800;SDS011;12081;48.614;10.226;2024-01-27T09:08:54;13.85;;;10.82;;
23800;SDS011;12081;48.614;10.226;2024-01-27T09:11:38;7.37;;;2.87;;
23800;SDS011;12081;48.614;10.226;2024-01-27T09:14:22;8.57;;;2.80;;
23800;SDS011;12081;48.614;10.226;2024-01-27T09:17:06;5.53;;;2.57;;
23800;SDS011;12081;48.614;10.226;2024-01-27T09:19:50;6.97;;;3.30;;
23800;SDS011;12081;48.614;10.226;2024-01-27T09:22:34;6.63;;;2.80;;
23800;SDS011;12081;48.614;10.226;2024-01-27T09:25:18;6.68;;;2.70;;
23800;SDS011;12081;48.614;10.226;2024-01-27T09:28:03;8.27;;;3.23;;
23800;SDS011;12081;48.614;10.226;2024-01-27T09:30:47;6.57;;;2.90;;
23800;SDS011;12081;48.614;10.226;2024-01-27T09:33:31;8.33;;;5.63;;
23800;SDS011;12081;48.614;10.226;2024-01-27T09:36:18;4.83;;;2.53;;
23800;SDS011;12081;48.614;10.226;2024-01-27T09:39:03;14.15;;;11.02;;
23800;SDS011;12081;48.614;10.226;2024-01-27T09:41:47;6.75;;;3.70;;
23800;SDS011;12081;48.614;10.226;2024-01-27T09:44:32;8.65;;;3.72;;
23800;SDS011;12081;48.614;10.226;2024-01-27T09:47:18;7.15;;;3.70;;
23800;SDS011;12081;48.614;10.226;2024-01-27T09:50:03;7.10;;;2.85;;
23800;SDS011;12081;48.614;10.226;2024-01-27T09:52:48;9.05;;;3.83;;
23800;SDS011;12081;48.614;10.226;2024-01-27T09:55:32;7.93;;;2.55;;
23800;SDS011;12081;48.614;10.226;2024-01-27T09:58:17;8.98;;;2.90;;
23800;SDS011;12081;48.614;10.226;2024-01-27T10:01:01;6.05;;;2.53;;
23800;SDS011;12081;48.614;10.226;2024-01-27T10:03:46;8.07;;;3.15;;
23800;SDS011;12081;48.614;10.226;2024-01-27T10:06:30;5.68;;;2.60;;
23800;SDS011;12081;48.614;10.226;2024-01-27T10:09:14;5.70;;;2.75;;
23800;SDS011;12081;48.614;10.226;2024-01-27T10:11:58;7.00;;;2.53;;
23800;SDS011;12081;48.614;10.226;2024-01-27T10:14:45;8.77;;;2.67;;
23800;SDS011;12081;48.614;10.226;2024-01-27T10:17:31;6.22;;;2.28;;
23800;SDS011;12081;48.614;10.226;2024-01-27T10:20:21;5.72;;;2.17;;
23800;SDS011;12081;48.614;10.226;2024-01-27T10:23:12;7.72;;;2.30;;
23800;SDS011;12081;48.614;10.226;2024-01-27T10:25:57;7.80;;;3.30;;
23800;SDS011;12081;48.614;10.226;2024-01-27T10:28:56;4.63;;;2.30;;
23800;SDS011;12081;48.614;10.226;2024-01-27T10:31:41;4.70;;;2.50;;
23800;SDS011;12081;48.614;10.226;2024-01-27T10:34:25;6.13;;;2.30;;
23800;SDS011;12081;48.614;10.226;2024-01-27T10:37:11;4.78;;;2.60;;
23800;SDS011;12081;48.614;10.226;2024-01-27T10:40:03;6.70;;;2.50;;
23800;SDS011;12081;48.614;10.226;2024-01-27T10:42:48;5.78;;;2.38;;
23800;SDS011;12081;48.614;10.226;2024-01-27T10:45:42;8.05;;;2.60;;
23800;SDS011;12081;48.614;10.226;2024-01-27T10:48:28;6.30;;;2.38;;
23800;SDS011;12081;48.614;10.226;2024-01-27T10:51:13;6.82;;;2.88;;
23800;SDS011;12081;48.614;10.226;2024-01-27T10:54:02;8.80;;;2.97;;
23800;SDS011;12081;48.614;10.226;2024-01-27T10:56:47;5.60;;;2.30;;
23800;SDS011;12081;48.614;10.226;2024-01-27T11:02:44;6.55;;;3.42;;
23800;SDS011;12081;48.614;10.226;2024-01-27T11:05:28;7.43;;;2.83;;
23800;SDS011;12081;48.614;10.226;2024-01-27T11:08:13;6.03;;;2.60;;
23800;SDS011;12081;48.614;10.226;2024-01-27T11:11:00;6.38;;;2.80;;
23800;SDS011;12081;48.614;10.226;2024-01-27T11:13:45;6.38;;;2.97;;
23800;SDS011;12081;48.614;10.226;2024-01-27T11:16:31;6.05;;;2.80;;
23800;SDS011;12081;48.614;10.226;2024-01-27T11:19:16;7.03;;;3.28;;
23800;SDS011;12081;48.614;10.226;2024-01-27T11:22:02;9.48;;;2.92;;
23800;SDS011;12081;48.614;10.226;2024-01-27T11:24:47;9.95;;;3.33;;
23800;SDS011;12081;48.614;10.226;2024-01-27T11:27:31;4.95;;;2.42;;
23800;SDS011;12081;48.614;10.226;2024-01-27T11:30:25;7.80;;;2.97;;
23800;SDS011;12081;48.614;10.226;2024-01-27T11:33:14;7.10;;;2.70;;
23800;SDS011;12081;48.614;10.226;2024-01-27T11:36:05;5.83;;;2.63;;
23800;SDS011;12081;48.614;10.226;2024-01-27T11:38:50;5.93;;;2.20;;
23800;SDS011;12081;48.614;10.226;2024-01-27T11:41:34;6.30;;;2.37;;
23800;SDS011;12081;48.614;10.226;2024-01-27T11:44:19;9.53;;;2.90;;
23800;SDS011;12081;48.614;10.226;2024-01-27T11:47:04;6.27;;;2.60;;
23800;SDS011;12081;48.614;10.226;2024-01-27T11:49:52;5.17;;;2.50;;
23800;SDS011;12081;48.614;10.226;2024-01-27T11:52:40;6.77;;;2.50;;
23800;SDS011;12081;48.614;10.226;2024-01-27T11:55:24;6.60;;;2.60;;
23800;SDS011;12081;48.614;10.226;2024-01-27T11:58:08;7.40;;;2.37;;
23800;SDS011;12081;48.614;10.226;2024-01-27T12:00:52;6.97;;;2.13;;
23800;SDS011;12081;48.614;10.226;2024-01-27T12:03:37;5.33;;;2.00;;
23800;SDS011;12081;48.614;10.226;2024-01-27T12:06:21;5.77;;;2.23;;
23800;SDS011;12081;48.614;10.226;2024-01-27T12:09:06;5.93;;;2.33;;
23800;SDS011;12081;48.614;10.226;2024-01-27T12:11:55;6.63;;;2.20;;
23800;SDS011;12081;48.614;10.226;2024-01-27T12:14:39;5.13;;;2.20;;
23800;SDS011;12081;48.614;10.226;2024-01-27T12:17:31;6.03;;;2.30;;
23800;SDS011;12081;48.614;10.226;2024-01-27T12:20:15;8.33;;;2.00;;
23800;SDS011;12081;48.614;10.226;2024-01-27T12:23:03;5.33;;;1.83;;
23800;SDS011;12081;48.614;10.226;2024-01-27T12:25:54;5.00;;;1.90;;
23800;SDS011;12081;48.614;10.226;2024-01-27T12:28:39;6.10;;;2.10;;
23800;SDS011;12081;48.614;10.226;2024-01-27T12:31:23;6.63;;;2.13;;
23800;SDS011;12081;48.614;10.226;2024-01-27T12:34:08;5.40;;;1.90;;
23800;SDS011;12081;48.614;10.226;2024-01-27T12:36:52;3.87;;;1.90;;
23800;SDS011;12081;48.614;10.226;2024-01-27T12:39:41;7.53;;;2.23;;
23800;SDS011;12081;48.614;10.226;2024-01-27T12:42:28;4.97;;;1.90;;
23800;SDS011;12081;48.614;10.226;2024-01-27T12:45:13;5.33;;;2.40;;
23800;SDS011;12081;48.614;10.226;2024-01-27T12:47:57;5.33;;;2.40;;
23800;SDS011;12081;48.614;10.226;2024-01-27T12:50:42;6.03;;;2.60;;
23800;SDS011;12081;48.614;10.226;2024-01-27T12:53:26;4.97;;;2.50;;
23800;SDS011;12081;48.614;10.226;2024-01-27T12:56:11;5.87;;;2.60;;
23800;SDS011;12081;48.614;10.226;2024-01-27T12:58:56;5.87;;;2.80;;
23800;SDS011;12081;48.614;10.226;2024-01-27T13:01:40;6.10;;;2.77;;
23800;SDS011;12081;48.614;10.226;2024-01-27T13:04:24;7.23;;;3.10;;
23800;SDS011;12081;48.614;10.226;2024-01-27T13:07:08;8.43;;;3.23;;
23800;SDS011;12081;48.614;10.226;2024-01-27T13:09:52;8.17;;;2.73;;
23800;SDS011;12081;48.614;10.226;2024-01-27T13:12:36;8.13;;;2.83;;
23800;SDS011;12081;48.614;10.226;2024-01-27T13:15:20;9.97;;;2.80;;
23800;SDS011;12081;48.614;10.226;2024-01-27T13:18:07;10.00;;;2.50;;
23800;SDS011;12081;48.614;10.226;2024-01-27T13:20:51;7.00;;;2.40;;
23800;SDS011;12081;48.614;10.226;2024-01-27T13:23:35;6.73;;;2.50;;
23800;SDS011;12081;48.614;10.226;2024-01-27T13:26:19;4.67;;;2.17;;
23800;SDS011;12081;48.614;10.226;2024-01-27T13:29:03;6.37;;;2.87;;
23800;SDS011;12081;48.614;10.226;2024-01-27T13:31:48;8.20;;;3.20;;
23800;SDS011;12081;48.614;10.226;2024-01-27T13:34:32;6.30;;;2.67;;
23800;SDS011;12081;48.614;10.226;2024-01-27T13:37:16;5.00;;;2.47;;
23800;SDS011;12081;48.614;10.226;2024-01-27T13:40:01;6.60;;;2.93;;
23800;SDS011;12081;48.614;10.226;2024-01-27T13:42:50;8.17;;;2.57;;
23800;SDS011;12081;48.614;10.226;2024-01-27T13:45:36;7.40;;;2.57;;
23800;SDS011;12081;48.614;10.226;2024-01-27T13:48:20;8.43;;;2.83;;
23800;SDS011;12081;48.614;10.226;2024-01-27T13:51:05;6.87;;;3.10;;
23800;SDS011;12081;48.614;10.226;2024-01-27T13:53:49;6.70;;;2.70;;
23800;SDS011;12081;48.614;10.226;2024-01-27T13:56:33;4.13;;;2.20;;
23800;SDS011;12081;48.614;10.226;2024-01-27T13:59:18;8.20;;;2.33;;
23800;SDS011;12081;48.614;10.226;2024-01-27T14:02:03;7.83;;;2.43;;
23800;SDS011;12081;48.614;10.226;2024-01-27T14:04:47;7.30;;;2.53;;
23800;SDS011;12081;48.614;10.226;2024-01-27T14:07:32;4.53;;;2.10;;
23800;SDS011;12081;48.614;10.226;2024-01-27T14:10:17;5.27;;;2.53;;
23800;SDS011;12081;48.614;10.226;2024-01-27T14:13:01;4.87;;;2.30;;
23800;SDS011;12081;48.614;10.226;2024-01-27T14:15:52;8.07;;;2.30;;
23800;SDS011;12081;48.614;10.226;2024-01-27T14:18:36;7.20;;;2.30;;
23800;SDS011;12081;48.614;10.226;2024-01-27T14:21:20;6.97;;;2.50;;
23800;SDS011;12081;48.614;10.226;2024-01-27T14:24:05;5.23;;;2.37;;
23800;SDS011;12081;48.614;10.226;2024-01-27T14:26:52;7.60;;;2.27;;
23800;SDS011;12081;48.614;10.226;2024-01-27T14:29:36;4.53;;;2.37;;
23800;SDS011;12081;48.614;10.226;2024-01-27T14:32:21;6.23;;;2.40;;
23800;SDS011;12081;48.614;10.226;2024-01-27T14:35:06;5.73;;;2.40;;
23800;SDS011;12081;48.614;10.226;2024-01-27T14:37:51;7.00;;;2.00;;
23800;SDS011;12081;48.614;10.226;2024-01-27T14:40:37;6.33;;;2.03;;
23800;SDS011;12081;48.614;10.226;2024-01-27T14:43:21;5.63;;;2.93;;
23800;SDS011;12081;48.614;10.226;2024-01-27T14:46:05;9.20;;;2.33;;
23800;SDS011;12081;48.614;10.226;2024-01-27T14:48:49;7.00;;;2.10;;
23800;SDS011;12081;48.614;10.226;2024-01-27T14:51:34;5.03;;;2.00;;
23800;SDS011;12081;48.614;10.226;2024-01-27T14:54:19;6.57;;;2.07;;
23800;SDS011;12081;48.614;10.226;2024-01-27T14:57:03;5.97;;;2.13;;
23800;SDS011;12081;48.614;10.226;2024-01-27T14:59:48;5.77;;;2.10;;
23800;SDS011;12081;48.614;10.226;2024-01-27T15:02:35;6.13;;;2.33;;
23800;SDS011;12081;48.614;10.226;2024-01-27T15:05:19;5.57;;;2.37;;
23800;SDS011;12081;48.614;10.226;2024-01-27T15:08:03;6.73;;;2.70;;
23800;SDS011;12081;48.614;10.226;2024-01-27T15:10:48;5.37;;;2.30;;
23800;SDS011;12081;48.614;10.226;2024-01-27T15:13:32;6.80;;;2.63;;
23800;SDS011;12081;48.614;10.226;2024-01-27T15:16:16;8.07;;;2.93;;
23800;SDS011;12081;48.614;10.226;2024-01-27T15:19:00;7.27;;;2.10;;
23800;SDS011;12081;48.614;10.226;2024-01-27T15:21:46;6.80;;;2.50;;
23800;SDS011;12081;48.614;10.226;2024-01-27T15:24:30;8.57;;;3.40;;
23800;SDS011;12081;48.614;10.226;2024-01-27T15:27:17;7.80;;;3.87;;
23800;SDS011;12081;48.614;10.226;2024-01-27T15:30:01;8.90;;;4.33;;
23800;SDS011;12081;48.614;10.226;2024-01-27T15:32:46;6.33;;;2.90;;
23800;SDS011;12081;48.614;10.226;2024-01-27T15:35:30;5.77;;;3.03;;
23800;SDS011;12081;48.614;10.226;2024-01-27T15:38:16;12.70;;;4.37;;
23800;SDS011;12081;48.614;10.226;2024-01-27T15:41:01;8.53;;;3.60;;
23800;SDS011;12081;48.614;10.226;2024-01-27T15:43:51;7.63;;;3.60;;
23800;SDS011;12081;48.614;10.226;2024-01-27T15:46:35;6.37;;;3.00;;
23800;SDS011;12081;48.614;10.226;2024-01-27T15:49:19;11.33;;;4.10;;
23800;SDS011;12081;48.614;10.226;2024-01-27T15:52:04;9.57;;;3.83;;
23800;SDS011;12081;48.614;10.226;2024-01-27T15:54:48;8.90;;;4.30;;
23800;SDS011;12081;48.614;10.226;2024-01-27T15:57:33;9.07;;;3.47;;
23800;SDS011;12081;48.614;10.226;2024-01-27T16:00:17;6.10;;;3.00;;
23800;SDS011;12081;48.614;10.226;2024-01-27T16:03:02;10.33;;;3.03;;
23800;SDS011;12081;48.614;10.226;2024-01-27T16:05:46;12.10;;;6.83;;
23800;SDS011;12081;48.614;10.226;2024-01-27T16:08:31;8.83;;;3.30;;
23800;SDS011;12081;48.614;10.226;2024-01-27T16:11:15;15.37;;;8.87;;
23800;SDS011;12081;48.614;10.226;2024-01-27T16:13:59;16.50;;;11.17;;
23800;SDS011;12081;48.614;10.226;2024-01-27T16:16:43;7.43;;;5.03;;
23800;SDS011;12081;48.614;10.226;2024-01-27T16:19:27;10.20;;;4.97;;
23800;SDS011;12081;48.614;10.226;2024-01-27T16:22:11;12.60;;;5.20;;
23800;SDS011;12081;48.614;10.226;2024-01-27T16:24:56;7.43;;;5.20;;
23800;SDS011;12081;48.614;10.226;2024-01-27T16:27:40;13.50;;;8.13;;
23800;SDS011;12081;48.614;10.226;2024-01-27T16:30:30;18.10;;;11.03;;